Time;durP1;ratioP1;P1;durP2;ratioP2;P2;SDS_P1;SDS_P2;PMS_P1;PMS_P2;Temp;Humidity;BMP_temperature;BMP_pressure;BME280_temperature;BME280_humidity;BME280_pressure;Samples;Min_cycle;Max_cycle;Signal;HPM_P1;HPM_P2
2024/01/04 00:02:07;;;;;;;11.25;7.70;;;11.40;99.90;;;;;;5141019;27;20282;-78
2024/01/04 00:04:34;;;;;;;2.72;2.45;;;11.50;99.90;;;;;;5141232;27;20234;-85
2024/01/04 00:07:03;;;;;;;2.53;1.10;;;11.50;99.90;;;;;;5141260;27;20244;-78
2024/01/04 00:09:31;;;;;;;1.58;1.30;;;11.50;99.90;;;;;;5129494;27;20547;-78
2024/01/04 00:12:01;;;;;;;4.60;2.70;;;11.50;99.90;;;;;;5142096;27;20222;-84
2024/01/04 00:14:28;;;;;;;9.15;5.47;;;11.50;99.90;;;;;;5144037;27;20222;-84
2024/01/04 00:16:55;;;;;;;3.83;3.25;;;11.50;99.90;;;;;;5142883;27;20228;-78
2024/01/04 00:19:22;;;;;;;2.70;2.03;;;11.50;99.90;;;;;;5145120;27;20218;-78
2024/01/04 00:21:49;;;;;;;3.25;1.20;;;11.50;99.90;;;;;;5142981;27;20226;-86
2024/01/04 00:24:23;;;;;;;3.30;2.00;;;11.50;99.90;;;;;;5145018;27;20226;-84
2024/01/04 00:26:53;;;;;;;1.95;1.40;;;11.50;99.90;;;;;;5142984;27;20297;-84
2024/01/04 00:29:20;;;;;;;1.60;1.20;;;11.50;99.90;;;;;;5141153;27;20222;-83
2024/01/04 00:31:48;;;;;;;11.48;6.65;;;11.50;99.90;;;;;;5136355;27;20316;-85
2024/01/04 00:34:16;;;;;;;1.83;1.55;;;11.50;99.90;;;;;;5138255;27;20241;-85
2024/01/04 00:36:43;;;;;;;2.45;1.45;;;11.50;99.90;;;;;;5140495;27;20218;-85
2024/01/04 00:39:15;;;;;;;4.20;2.47;;;11.50;99.90;;;;;;5143498;27;20631;-85
2024/01/04 00:41:43;;;;;;;2.75;1.90;;;11.50;99.90;;;;;;5139323;27;20313;-78
2024/01/04 00:44:11;;;;;;;2.95;1.30;;;11.50;99.90;;;;;;5118804;27;20214;-78
2024/01/04 00:46:38;;;;;;;2.92;1.23;;;11.50;99.90;;;;;;5114909;28;20570;-78
2024/01/04 00:49:05;;;;;;;22.42;11.45;;;11.50;99.90;;;;;;5116399;28;20591;-78
2024/01/04 00:51:34;;;;;;;5.57;3.05;;;11.50;99.90;;;;;;5115895;28;20246;-85
2024/01/04 00:54:04;;;;;;;2.33;1.70;;;11.60;99.90;;;;;;5115369;28;20237;-85
2024/01/04 00:56:35;;;;;;;5.70;4.53;;;11.60;99.90;;;;;;5115044;28;20219;-85
2024/01/04 00:59:07;;;;;;;3.38;2.03;;;11.50;99.90;;;;;;5115761;28;20226;-85
2024/01/04 01:01:34;;;;;;;3.60;2.80;;;11.50;99.90;;;;;;5115486;27;20219;-86
2024/01/04 01:04:01;;;;;;;7.93;3.50;;;11.60;99.90;;;;;;5119636;27;20236;-78
2024/01/04 01:06:28;;;;;;;13.32;7.22;;;11.50;99.90;;;;;;5129290;27;20226;-85
2024/01/04 01:08:59;;;;;;;2.65;2.25;;;11.50;99.90;;;;;;5125094;27;20396;-85
2024/01/04 01:11:26;;;;;;;3.47;2.60;;;11.50;99.90;;;;;;5133592;27;20226;-78
2024/01/04 01:13:53;;;;;;;10.02;6.38;;;11.50;99.90;;;;;;5135084;27;20240;-85
2024/01/04 01:16:21;;;;;;;4.78;3.63;;;11.50;99.90;;;;;;5134990;27;20228;-83
2024/01/04 01:18:48;;;;;;;3.47;2.50;;;11.60;99.90;;;;;;5135507;27;20218;-78
2024/01/04 01:21:15;;;;;;;3.00;1.25;;;11.60;99.90;;;;;;5122196;27;20279;-85
2024/01/04 01:23:42;;;;;;;2.63;1.38;;;11.50;99.90;;;;;;5114338;28;20233;-78
2024/01/04 01:26:09;;;;;;;2.83;1.45;;;11.60;99.90;;;;;;5114034;28;20238;-78
2024/01/04 01:28:36;;;;;;;4.68;2.55;;;11.60;99.90;;;;;;5115533;27;20226;-77
2024/01/04 01:31:03;;;;;;;10.50;7.97;;;11.60;99.90;;;;;;5114069;28;20236;-77
2024/01/04 01:33:32;;;;;;;4.55;2.35;;;11.60;99.90;;;;;;5113472;28;20230;-84
2024/01/04 01:36:01;;;;;;;5.43;3.28;;;11.60;99.90;;;;;;5114198;28;20222;-78
2024/01/04 01:38:31;;;;;;;17.98;12.30;;;11.50;99.90;;;;;;5113347;28;20219;-84
2024/01/04 01:40:58;;;;;;;4.82;2.97;;;11.50;99.90;;;;;;5114830;28;20226;-84
2024/01/04 01:43:25;;;;;;;3.30;1.40;;;11.50;99.90;;;;;;5115143;28;20244;-82
2024/01/04 01:45:53;;;;;;;3.70;2.13;;;11.50;99.90;;;;;;5114428;28;21107;-84
2024/01/04 01:48:22;;;;;;;2.88;1.63;;;11.50;99.90;;;;;;5114667;27;20230;-78
2024/01/04 01:50:51;;;;;;;9.02;6.78;;;11.50;99.90;;;;;;5113564;28;20285;-77
2024/01/04 01:53:18;;;;;;;6.90;5.05;;;11.50;99.90;;;;;;5113808;28;20676;-78
2024/01/04 01:55:45;;;;;;;2.47;2.25;;;11.60;99.90;;;;;;5113845;28;20249;-85
2024/01/04 01:58:13;;;;;;;4.70;2.58;;;11.60;99.90;;;;;;5114296;28;20222;-85
2024/01/04 02:00:41;;;;;;;3.05;2.28;;;11.50;99.90;;;;;;5113882;28;20230;-85
2024/01/04 02:03:10;;;;;;;6.18;4.45;;;11.50;99.90;;;;;;5114208;28;20223;-77
2024/01/04 02:05:37;;;;;;;6.15;3.70;;;11.50;99.90;;;;;;5132059;27;20706;-78
2024/01/04 02:08:07;;;;;;;2.17;1.83;;;11.60;99.90;;;;;;5135873;27;20229;-77
2024/01/04 02:10:34;;;;;;;10.15;7.97;;;11.50;99.90;;;;;;5114326;28;20553;-85
2024/01/04 02:13:01;;;;;;;8.82;7.25;;;11.50;99.90;;;;;;5131806;27;20222;-78
2024/01/04 02:15:28;;;;;;;4.30;3.50;;;11.50;99.90;;;;;;5135711;27;20230;-77
2024/01/04 02:17:55;;;;;;;18.63;12.18;;;11.50;99.90;;;;;;5133930;27;20620;-78
2024/01/04 02:20:31;;;;;;;7.90;5.88;;;11.50;99.90;;;;;;5136576;27;20222;-84
2024/01/04 02:22:59;;;;;;;5.43;2.20;;;11.40;99.90;;;;;;5138521;27;20249;-85
2024/01/04 02:25:26;;;;;;;2.97;0.93;;;11.40;99.90;;;;;;5130340;27;20225;-85
2024/01/04 02:27:54;;;;;;;5.47;2.50;;;11.40;99.90;;;;;;5138855;27;20218;-85
2024/01/04 02:30:21;;;;;;;1.50;1.00;;;11.40;99.90;;;;;;5138183;27;20218;-78
2024/01/04 02:32:48;;;;;;;9.40;5.25;;;11.30;99.90;;;;;;5138030;27;20234;-78
2024/01/04 02:35:15;;;;;;;6.55;3.17;;;11.30;99.90;;;;;;5138233;27;20246;-78
2024/01/04 02:37:42;;;;;;;1.73;1.40;;;11.40;99.90;;;;;;5137688;27;20232;-79
2024/01/04 02:40:14;;;;;;;2.35;1.83;;;11.40;99.90;;;;;;5138969;27;20225;-78
2024/01/04 02:42:41;;;;;;;3.97;2.53;;;11.40;99.90;;;;;;5137758;27;20244;-85
2024/01/04 02:45:09;;;;;;;2.65;1.77;;;11.40;99.90;;;;;;5139456;27;20221;-84
2024/01/04 02:47:36;;;;;;;3.78;1.05;;;11.40;99.90;;;;;;5138959;27;20234;-84
2024/01/04 02:50:04;;;;;;;1.13;0.80;;;11.40;99.90;;;;;;5139139;27;20229;-85
2024/01/04 02:52:31;;;;;;;2.95;1.67;;;11.40;99.90;;;;;;5138175;27;20248;-84
2024/01/04 02:54:57;;;;;;;2.42;1.60;;;11.40;99.90;;;;;;5137334;27;20282;-85
2024/01/04 02:57:26;;;;;;;2.55;1.10;;;11.40;99.90;;;;;;5138191;27;20222;-84
2024/01/04 02:59:53;;;;;;;2.08;1.45;;;11.40;99.90;;;;;;5137466;27;20230;-77
2024/01/04 03:02:20;;;;;;;0.80;0.80;;;11.40;99.90;;;;;;5137510;27;20229;-77
2024/01/04 03:04:47;;;;;;;3.70;2.42;;;11.30;99.90;;;;;;5130515;27;20294;-84
2024/01/04 03:07:14;;;;;;;3.60;2.10;;;11.30;99.90;;;;;;5117569;28;20237;-85
2024/01/04 03:09:41;;;;;;;19.17;13.85;;;11.30;99.90;;;;;;5115806;28;20561;-84
2024/01/04 03:12:09;;;;;;;9.15;6.38;;;11.30;99.90;;;;;;5116987;28;20537;-84
2024/01/04 03:14:37;;;;;;;4.10;3.42;;;11.30;99.90;;;;;;5116389;28;20283;-84
2024/01/04 03:17:07;;;;;;;3.25;2.50;;;11.30;99.90;;;;;;5116824;28;20306;-84
2024/01/04 03:19:34;;;;;;;2.47;1.00;;;11.30;99.90;;;;;;5118115;28;20612;-84
2024/01/04 03:22:01;;;;;;;1.10;1.00;;;11.30;99.90;;;;;;5117015;27;20238;-85
2024/01/04 03:24:28;;;;;;;3.25;1.73;;;11.30;99.90;;;;;;5120792;28;20291;-78
2024/01/04 03:26:55;;;;;;;2.38;1.92;;;11.20;99.90;;;;;;5122087;28;20235;-84
2024/01/04 03:29:22;;;;;;;1.30;0.90;;;11.30;99.90;;;;;;5122645;27;20237;-84
2024/01/04 03:31:50;;;;;;;22.13;13.15;;;11.20;99.90;;;;;;5139484;27;20230;-84
2024/01/04 03:34:21;;;;;;;3.55;1.80;;;11.20;99.90;;;;;;5129619;28;20238;-77
2024/01/04 03:36:48;;;;;;;2.38;1.90;;;11.20;99.90;;;;;;5123589;28;20222;-78
2024/01/04 03:39:15;;;;;;;3.95;1.50;;;11.20;99.90;;;;;;5126330;28;20222;-78
2024/01/04 03:41:42;;;;;;;2.13;1.30;;;11.10;99.90;;;;;;5120254;28;20222;-77
2024/01/04 03:44:09;;;;;;;1.70;1.15;;;11.20;99.90;;;;;;5117832;28;20246;-84
2024/01/04 03:46:36;;;;;;;0.90;0.80;;;11.10;99.90;;;;;;5120459;28;20307;-84
2024/01/04 03:49:04;;;;;;;1.45;0.90;;;11.10;99.90;;;;;;5118618;28;20310;-84
2024/01/04 03:51:31;;;;;;;1.23;0.90;;;11.10;99.90;;;;;;5119434;28;20231;-85
2024/01/04 03:53:59;;;;;;;1.35;1.00;;;11.10;99.90;;;;;;5118113;28;20227;-78
2024/01/04 03:56:26;;;;;;;0.80;0.80;;;11.10;99.90;;;;;;5118658;28;20287;-78
2024/01/04 03:58:53;;;;;;;2.92;2.53;;;11.10;99.90;;;;;;5117623;28;20683;-78
2024/01/04 04:01:21;;;;;;;3.70;2.67;;;11.00;99.90;;;;;;5117785;27;20226;-85
2024/01/04 04:03:48;;;;;;;2.60;1.30;;;11.10;99.90;;;;;;5117635;28;20245;-84
2024/01/04 04:06:20;;;;;;;3.97;2.90;;;11.00;99.90;;;;;;5117770;28;20301;-85
2024/01/04 04:08:47;;;;;;;3.13;2.35;;;11.00;99.90;;;;;;5116690;28;20223;-77
2024/01/04 04:11:17;;;;;;;5.78;4.03;;;11.00;99.90;;;;;;5117141;27;20223;-79
2024/01/04 04:13:50;;;;;;;2.90;1.05;;;11.00;99.90;;;;;;5117483;28;20226;-85
2024/01/04 04:16:17;;;;;;;2.63;2.35;;;10.90;99.90;;;;;;5117642;28;20321;-85
2024/01/04 04:18:44;;;;;;;2.53;2.33;;;10.90;99.90;;;;;;5117655;28;20585;-78
2024/01/04 04:21:20;;;;;;;7.25;3.83;;;10.90;99.90;;;;;;5116632;28;20229;-85
2024/01/04 04:23:49;;;;;;;2.15;1.52;;;10.90;99.90;;;;;;5118772;27;20242;-85
2024/01/04 04:26:18;;;;;;;2.20;2.00;;;11.00;99.90;;;;;;5117194;28;20222;-78
2024/01/04 04:28:45;;;;;;;2.33;1.33;;;10.90;99.90;;;;;;5119019;27;20251;-78
2024/01/04 04:31:14;;;;;;;10.68;9.07;;;10.90;99.90;;;;;;5120516;27;20298;-78
2024/01/04 04:33:41;;;;;;;4.47;2.80;;;11.00;99.90;;;;;;5123483;28;20238;-78
2024/01/04 04:36:08;;;;;;;4.45;4.10;;;10.90;99.90;;;;;;5122535;27;20283;-78
2024/01/04 04:38:37;;;;;;;1.70;1.27;;;10.90;99.90;;;;;;5127711;28;20226;-84
2024/01/04 04:41:05;;;;;;;5.07;2.40;;;10.90;99.90;;;;;;5128507;28;20215;-84
2024/01/04 04:43:32;;;;;;;1.80;1.35;;;10.90;99.90;;;;;;5130647;28;20231;-78
2024/01/04 04:45:59;;;;;;;3.17;2.20;;;10.90;99.90;;;;;;5125838;28;20214;-78
2024/01/04 04:48:26;;;;;;;3.05;2.30;;;10.90;99.90;;;;;;5128172;27;20246;-79
2024/01/04 04:50:54;;;;;;;3.50;1.35;;;10.90;99.90;;;;;;5127339;27;20226;-85
2024/01/04 04:53:21;;;;;;;4.38;2.42;;;10.90;99.90;;;;;;5133631;27;20226;-85
2024/01/04 04:55:50;;;;;;;3.20;2.45;;;10.90;99.90;;;;;;5132995;28;20688;-85
2024/01/04 04:58:17;;;;;;;1.63;1.30;;;10.90;99.90;;;;;;5134039;28;20234;-85
2024/01/04 05:00:44;;;;;;;1.75;1.30;;;11.00;99.90;;;;;;5131733;28;20231;-79
2024/01/04 05:03:11;;;;;;;1.75;1.60;;;10.90;99.90;;;;;;5134473;28;20260;-85
2024/01/04 05:05:38;;;;;;;2.55;1.75;;;10.90;99.90;;;;;;5133314;28;20211;-85
2024/01/04 05:08:06;;;;;;;2.47;2.17;;;10.90;99.90;;;;;;5133661;28;20229;-85
2024/01/04 05:10:33;;;;;;;7.40;6.38;;;10.90;99.90;;;;;;5131688;27;20222;-85
2024/01/04 05:13:01;;;;;;;3.40;3.10;;;10.90;99.90;;;;;;5119473;28;20222;-78
2024/01/04 05:15:28;;;;;;;1.75;1.50;;;10.90;99.90;;;;;;5118925;28;20234;-85
2024/01/04 05:17:56;;;;;;;2.58;2.38;;;11.00;99.90;;;;;;5120204;28;20219;-78
2024/01/04 05:20:23;;;;;;;1.77;1.63;;;10.90;99.90;;;;;;5117267;28;20227;-78
2024/01/04 05:22:51;;;;;;;3.20;2.00;;;10.90;99.90;;;;;;5118181;28;20265;-78
2024/01/04 05:25:17;;;;;;;1.52;1.33;;;10.90;99.90;;;;;;5121001;28;20227;-85
2024/01/04 05:27:44;;;;;;;2.15;1.48;;;11.00;99.90;;;;;;5122635;28;20302;-85
2024/01/04 05:30:13;;;;;;;5.63;3.45;;;10.90;99.90;;;;;;5115962;28;20233;-85
2024/01/04 05:32:40;;;;;;;1.73;1.63;;;10.90;99.90;;;;;;5115420;28;20230;-82
2024/01/04 05:35:08;;;;;;;2.95;2.25;;;10.90;99.90;;;;;;5118578;28;20302;-85
2024/01/04 05:37:34;;;;;;;2.72;2.25;;;10.90;99.90;;;;;;5114217;28;20230;-78
2024/01/04 05:40:03;;;;;;;7.90;6.78;;;10.90;99.90;;;;;;5114129;28;20579;-84
2024/01/04 05:42:30;;;;;;;4.20;3.00;;;10.80;99.90;;;;;;5117282;28;20236;-78
2024/01/04 05:44:57;;;;;;;3.78;2.00;;;10.80;99.90;;;;;;5115491;28;20249;-85
2024/01/04 05:47:25;;;;;;;7.45;5.47;;;10.80;99.90;;;;;;5117312;28;20591;-84
2024/01/04 05:49:52;;;;;;;3.22;2.80;;;10.80;99.90;;;;;;5117963;28;20233;-85
2024/01/04 05:52:19;;;;;;;4.03;3.60;;;10.80;99.90;;;;;;5116705;28;20234;-85
2024/01/04 05:54:46;;;;;;;10.77;9.25;;;10.80;99.90;;;;;;5116221;28;20237;-85
2024/01/04 05:57:13;;;;;;;17.40;10.43;;;10.80;99.90;;;;;;5116010;28;20222;-85
2024/01/04 05:59:40;;;;;;;3.10;2.40;;;10.80;99.90;;;;;;5116016;28;20222;-85
2024/01/04 06:02:07;;;;;;;4.70;3.72;;;10.80;99.90;;;;;;5115294;28;20226;-86
2024/01/04 06:04:35;;;;;;;15.50;7.90;;;10.80;99.90;;;;;;5116240;28;20297;-85
2024/01/04 06:07:02;;;;;;;6.32;5.18;;;10.80;99.90;;;;;;5115708;28;20560;-78
2024/01/04 06:09:28;;;;;;;3.83;3.33;;;10.80;99.90;;;;;;5114501;28;20538;-78
2024/01/04 06:11:55;;;;;;;4.33;3.57;;;10.80;99.90;;;;;;5113922;28;20230;-79
2024/01/04 06:14:22;;;;;;;4.63;2.50;;;10.80;99.90;;;;;;5116702;28;20461;-85
2024/01/04 06:16:49;;;;;;;5.47;4.25;;;10.80;99.90;;;;;;5119091;28;20687;-85
2024/01/04 06:19:16;;;;;;;14.10;8.10;;;10.80;99.90;;;;;;5124553;28;20226;-85
2024/01/04 06:21:44;;;;;;;4.07;3.30;;;10.70;99.90;;;;;;5126369;28;20219;-78
2024/01/04 06:24:11;;;;;;;2.85;2.10;;;10.70;99.90;;;;;;5116002;28;20667;-78
2024/01/04 06:26:38;;;;;;;3.05;2.25;;;10.70;99.90;;;;;;5115118;28;20233;-79
2024/01/04 06:29:05;;;;;;;3.50;3.08;;;10.70;99.90;;;;;;5115276;28;20234;-83
2024/01/04 06:31:32;;;;;;;3.25;2.95;;;10.70;99.90;;;;;;5118489;28;20222;-78
2024/01/04 06:33:59;;;;;;;3.40;2.80;;;10.70;99.90;;;;;;5116491;28;20679;-78
2024/01/04 06:36:26;;;;;;;8.00;5.38;;;10.70;99.90;;;;;;5120063;28;20226;-78
2024/01/04 06:38:54;;;;;;;5.25;4.75;;;10.70;99.90;;;;;;5114388;28;20618;-78
2024/01/04 06:41:23;;;;;;;3.45;2.85;;;10.70;99.90;;;;;;5114483;28;20570;-78
2024/01/04 06:43:51;;;;;;;3.75;3.35;;;10.60;99.90;;;;;;5114987;28;20283;-85
2024/01/04 06:46:18;;;;;;;1.80;1.40;;;10.60;99.90;;;;;;5114333;28;20219;-78
2024/01/04 06:48:48;;;;;;;2.22;1.58;;;10.50;99.90;;;;;;5115539;28;20227;-85
2024/01/04 06:51:15;;;;;;;1.67;1.58;;;10.40;99.90;;;;;;5115214;28;20233;-85
2024/01/04 06:53:42;;;;;;;2.70;2.00;;;10.40;99.90;;;;;;5115032;28;20229;-84
2024/01/04 06:56:12;;;;;;;3.55;2.67;;;10.30;99.90;;;;;;5114820;28;20225;-85
2024/01/04 06:58:39;;;;;;;1.25;1.13;;;10.30;99.90;;;;;;5112965;28;20669;-78
2024/01/04 07:01:07;;;;;;;3.42;2.40;;;10.30;99.90;;;;;;5102132;28;20310;-85
2024/01/04 07:03:34;;;;;;;2.58;2.30;;;10.20;99.90;;;;;;5128158;27;20591;-85
2024/01/04 07:06:02;;;;;;;4.82;3.08;;;10.20;99.90;;;;;;5114073;28;20563;-84
2024/01/04 07:08:29;;;;;;;3.42;2.60;;;10.10;99.90;;;;;;5118024;28;20258;-85
2024/01/04 07:10:56;;;;;;;2.40;2.03;;;10.10;99.90;;;;;;5118419;27;20218;-85
2024/01/04 07:13:25;;;;;;;2.38;1.30;;;10.00;99.90;;;;;;5116607;28;20234;-84
2024/01/04 07:15:52;;;;;;;2.97;1.70;;;10.00;99.90;;;;;;5118178;28;20218;-84
2024/01/04 07:18:19;;;;;;;4.60;3.15;;;9.90;99.90;;;;;;5117693;27;20226;-85
2024/01/04 07:20:46;;;;;;;3.88;3.33;;;9.80;99.90;;;;;;5118830;28;20218;-85
2024/01/04 07:23:13;;;;;;;1.98;1.83;;;9.80;99.90;;;;;;5117526;28;20227;-85
2024/01/04 07:25:40;;;;;;;1.48;0.95;;;9.80;99.90;;;;;;5117267;28;20230;-85
2024/01/04 07:28:07;;;;;;;3.08;2.00;;;9.80;99.90;;;;;;5116564;28;20628;-84
2024/01/04 07:30:36;;;;;;;4.30;3.60;;;9.80;99.90;;;;;;5118440;27;20218;-84
2024/01/04 07:33:03;;;;;;;3.50;1.23;;;9.70;99.90;;;;;;5117747;28;20713;-84
2024/01/04 07:35:30;;;;;;;10.38;1.75;;;9.60;99.90;;;;;;5118144;28;20563;-85
2024/01/04 07:37:58;;;;;;;1.98;1.15;;;9.50;99.90;;;;;;5118414;28;20264;-85
2024/01/04 07:40:25;;;;;;;1.30;1.10;;;9.60;99.90;;;;;;5117348;28;20244;-85
2024/01/04 07:42:52;;;;;;;2.85;1.83;;;9.50;99.90;;;;;;5117763;28;20223;-85
2024/01/04 07:45:19;;;;;;;2.88;1.75;;;9.50;99.90;;;;;;5117830;28;20218;-84
2024/01/04 07:47:48;;;;;;;1.65;1.30;;;9.50;99.90;;;;;;5118545;27;20227;-84
2024/01/04 07:50:15;;;;;;;5.50;2.70;;;9.50;99.90;;;;;;5116434;28;20233;-85
2024/01/04 07:52:42;;;;;;;1.02;0.93;;;9.40;99.90;;;;;;5117727;28;20608;-85
2024/01/04 07:55:09;;;;;;;3.33;1.92;;;9.40;99.90;;;;;;5116831;28;20276;-84
2024/01/04 07:57:36;;;;;;;1.30;1.20;;;9.30;99.90;;;;;;5117317;28;20252;-84
2024/01/04 10:21:01;;;;;;;3.50;1.20;;;7.30;99.90;;;;;;5112416;28;20265;-85
2024/01/04 10:23:28;;;;;;;2.38;1.00;;;7.30;99.90;;;;;;5114600;28;20234;-86
2024/01/04 10:26:06;;;;;;;1.52;1.42;;;7.30;99.90;;;;;;5114147;28;20288;-83
2024/01/04 10:28:35;;;;;;;1.95;1.75;;;7.30;99.90;;;;;;5114996;28;20218;-85
2024/01/04 10:31:08;;;;;;;2.47;0.98;;;7.30;99.90;;;;;;5103281;28;20675;-85
2024/01/04 10:33:35;;;;;;;1.38;1.10;;;7.30;99.90;;;;;;5104066;28;20317;-84
2024/01/04 10:36:09;;;;;;;1.17;1.08;;;7.20;99.90;;;;;;5113004;28;20219;-78
2024/01/04 10:38:39;;;;;;;1.45;1.35;;;7.30;99.90;;;;;;5115471;28;20219;-84
2024/01/04 10:41:06;;;;;;;2.65;2.22;;;7.30;99.90;;;;;;5114669;28;20558;-84
2024/01/04 10:43:34;;;;;;;2.28;1.02;;;7.30;99.90;;;;;;5118643;28;20222;-78
2024/01/04 10:46:08;;;;;;;1.30;1.20;;;7.30;99.90;;;;;;5117064;28;20215;-80
2024/01/04 10:49:13;;;;;;;0.82;0.82;;;7.30;99.90;;;;;;5117395;28;20228;-78
2024/01/04 10:51:45;;;;;;;2.15;1.73;;;7.20;99.90;;;;;;5088690;28;20222;-78
2024/01/04 10:54:13;;;;;;;1.02;0.93;;;7.20;99.90;;;;;;5117460;28;20222;-85
2024/01/04 10:56:40;;;;;;;1.00;0.90;;;7.20;99.90;;;;;;5117498;28;20234;-86
2024/01/04 10:59:10;;;;;;;2.35;1.67;;;7.20;99.90;;;;;;5117448;28;20222;-79
2024/01/04 11:01:42;;;;;;;2.50;2.13;;;7.20;99.90;;;;;;5119139;28;20222;-85
2024/01/04 11:04:11;;;;;;;1.73;1.48;;;7.10;99.90;;;;;;5109381;28;20231;-85
2024/01/04 11:06:48;;;;;;;1.48;1.17;;;7.10;99.90;;;;;;5117560;28;20219;-78
2024/01/04 11:09:15;;;;;;;1.15;1.00;;;7.10;99.90;;;;;;5116188;28;20226;-78
2024/01/04 11:11:43;;;;;;;1.00;0.98;;;7.00;99.90;;;;;;5116983;28;20223;-78
2024/01/04 11:14:10;;;;;;;1.83;1.70;;;6.90;99.90;;;;;;5116404;28;20230;-78
2024/01/04 11:17:00;;;;;;;4.63;2.67;;;6.90;99.90;;;;;;5117009;28;20596;-78
2024/01/04 11:19:36;;;;;;;2.03;1.83;;;6.90;99.90;;;;;;5122580;28;20245;-86
2024/01/04 11:22:16;;;;;;;3.28;2.83;;;6.90;99.90;;;;;;5130408;28;20218;-85
2024/01/04 11:24:55;;;;;;;2.05;1.80;;;6.90;99.90;;;;;;5126903;28;20232;-85
2024/01/04 11:27:25;;;;;;;1.25;0.90;;;6.90;99.90;;;;;;5136175;28;20210;-86
2024/01/04 11:29:52;;;;;;;1.45;1.27;;;6.90;99.90;;;;;;5134911;28;20228;-83
2024/01/04 11:32:20;;;;;;;1.33;1.10;;;6.90;99.90;;;;;;5121913;28;20287;-78
2024/01/04 11:34:47;;;;;;;1.40;1.15;;;6.90;99.90;;;;;;5116410;28;20271;-79
2024/01/04 11:37:18;;;;;;;2.13;1.60;;;6.90;99.90;;;;;;5116760;28;20225;-79
2024/01/04 11:39:56;;;;;;;2.10;1.90;;;6.90;99.90;;;;;;5115961;28;20683;-79
2024/01/04 11:42:32;;;;;;;2.92;2.15;;;6.80;99.90;;;;;;5117050;28;20219;-78
2024/01/04 11:44:59;;;;;;;4.05;2.80;;;6.70;99.90;;;;;;5116268;28;20233;-85
2024/01/04 11:47:28;;;;;;;2.15;1.38;;;6.80;99.90;;;;;;5116581;28;20301;-85
2024/01/04 11:49:59;;;;;;;1.88;1.65;;;6.80;99.90;;;;;;5116067;28;20226;-78
2024/01/04 11:52:29;;;;;;;1.33;1.20;;;6.80;99.90;;;;;;5115248;28;20227;-78
2024/01/04 11:54:56;;;;;;;1.80;1.40;;;6.90;99.90;;;;;;5115211;28;20232;-78
2024/01/04 11:57:23;;;;;;;1.10;1.00;;;6.90;99.90;;;;;;5116190;28;20223;-78
2024/01/04 11:59:51;;;;;;;1.30;1.20;;;6.80;99.90;;;;;;5106433;28;20226;-78
2024/01/04 12:02:19;;;;;;;1.83;1.33;;;6.80;99.90;;;;;;5115535;28;20314;-78
2024/01/04 12:04:48;;;;;;;2.13;1.45;;;6.70;99.90;;;;;;5116193;28;20250;-78
2024/01/04 12:07:15;;;;;;;2.42;1.13;;;6.70;99.90;;;;;;5111333;28;20230;-78
2024/01/04 12:09:42;;;;;;;2.60;2.00;;;6.70;99.90;;;;;;5115481;28;20253;-78
2024/01/04 12:12:10;;;;;;;3.00;1.98;;;6.70;99.90;;;;;;5115558;28;20223;-78
2024/01/04 12:14:37;;;;;;;1.30;1.20;;;6.60;99.90;;;;;;5115485;28;20215;-86
2024/01/04 12:17:05;;;;;;;1.40;1.30;;;6.50;99.90;;;;;;5117755;28;20215;-86
2024/01/04 12:19:37;;;;;;;1.80;1.55;;;6.50;99.90;;;;;;5117034;27;20227;-78
2024/01/04 12:22:06;;;;;;;1.40;1.30;;;6.50;99.90;;;;;;5115562;28;20233;-78
2024/01/04 12:24:34;;;;;;;1.38;1.27;;;6.50;99.90;;;;;;5115330;28;20252;-85
2024/01/04 12:27:02;;;;;;;1.85;1.45;;;6.50;99.90;;;;;;5117298;28;20214;-85
2024/01/04 12:29:29;;;;;;;2.05;1.80;;;6.50;99.90;;;;;;5116284;28;20227;-86
2024/01/04 12:31:57;;;;;;;3.28;1.92;;;6.40;99.90;;;;;;5116703;28;20594;-85
2024/01/04 12:34:23;;;;;;;1.75;1.65;;;6.40;99.90;;;;;;5114876;28;20222;-78
2024/01/04 12:36:51;;;;;;;3.13;2.47;;;6.40;99.90;;;;;;5115460;28;20318;-78
2024/01/04 12:39:20;;;;;;;2.70;2.35;;;6.40;99.90;;;;;;5114724;28;20223;-78
2024/01/04 12:41:48;;;;;;;2.25;1.55;;;6.40;99.90;;;;;;5115342;28;20223;-79
2024/01/04 12:44:17;;;;;;;1.63;1.33;;;6.40;99.90;;;;;;5114408;28;20236;-79
2024/01/04 12:46:46;;;;;;;1.50;1.40;;;6.40;99.90;;;;;;5115473;28;20231;-85
2024/01/04 12:49:15;;;;;;;1.60;1.50;;;6.40;99.90;;;;;;5116471;28;20230;-85
2024/01/04 12:51:43;;;;;;;1.30;1.20;;;6.40;99.90;;;;;;5106291;28;20234;-78
2024/01/04 12:54:47;;;;;;;1.55;1.35;;;6.40;99.90;;;;;;5115417;28;20657;-78
2024/01/04 12:57:22;;;;;;;8.13;4.03;;;6.40;99.90;;;;;;5115683;28;20649;-86
2024/01/04 12:59:52;;;;;;;2.50;2.03;;;6.30;99.90;;;;;;5114175;28;20221;-85
2024/01/04 13:04:46;;;;;;;2.50;1.87;;;6.30;99.90;;;;;;5100233;22;20258;-79
2024/01/04 13:07:14;;;;;;;3.38;1.98;;;6.40;99.90;;;;;;5081040;28;20216;-79
2024/01/04 13:09:44;;;;;;;2.45;2.25;;;6.30;99.90;;;;;;5075091;28;20243;-85
2024/01/04 13:12:12;;;;;;;2.42;1.70;;;6.30;99.90;;;;;;5079525;28;20311;-79
2024/01/04 13:14:38;;;;;;;4.05;2.28;;;6.30;99.90;;;;;;5096431;28;20245;-79
2024/01/04 13:17:06;;;;;;;3.85;1.67;;;6.30;99.90;;;;;;5114940;28;20222;-79
2024/01/04 13:19:33;;;;;;;1.60;1.50;;;6.30;99.90;;;;;;5115421;28;20214;-79
2024/01/04 13:22:00;;;;;;;2.78;2.00;;;6.30;99.90;;;;;;5114696;28;20256;-85
2024/01/04 13:24:29;;;;;;;3.67;2.53;;;6.20;99.90;;;;;;5114128;28;20226;-85
2024/01/04 13:26:57;;;;;;;1.48;1.35;;;6.20;99.90;;;;;;5114492;28;20233;-79
2024/01/04 13:29:26;;;;;;;4.57;2.53;;;6.20;99.90;;;;;;5114223;28;20234;-86
2024/01/04 13:31:53;;;;;;;1.55;1.40;;;6.20;99.90;;;;;;5114123;28;20283;-79
2024/01/04 13:34:21;;;;;;;1.65;1.20;;;6.20;99.90;;;;;;5114061;28;20241;-86
2024/01/04 13:36:50;;;;;;;2.35;2.15;;;6.20;99.90;;;;;;5114839;28;20237;-86
2024/01/04 13:39:21;;;;;;;5.30;3.55;;;6.20;99.90;;;;;;5116335;28;20690;-85
2024/01/04 13:41:48;;;;;;;3.90;3.00;;;6.20;99.90;;;;;;5113031;28;20223;-79
2024/01/04 13:44:17;;;;;;;10.63;7.97;;;6.20;99.90;;;;;;5114161;28;20291;-78
2024/01/04 13:46:44;;;;;;;3.35;2.15;;;6.20;99.90;;;;;;5113942;28;20276;-79
2024/01/04 13:49:11;;;;;;;3.47;2.55;;;6.10;99.90;;;;;;5113983;28;20222;-79
2024/01/04 13:51:38;;;;;;;3.67;3.00;;;6.20;99.90;;;;;;5114111;28;20219;-78
2024/01/04 13:54:08;;;;;;;4.15;2.85;;;6.10;99.90;;;;;;5109803;28;20246;-79
2024/01/04 13:56:35;;;;;;;2.20;2.00;;;6.10;99.90;;;;;;5115371;28;20745;-85
2024/01/04 13:59:02;;;;;;;3.55;3.10;;;6.10;99.90;;;;;;5115202;28;20230;-86
2024/01/04 14:01:31;;;;;;;3.50;3.20;;;6.20;99.90;;;;;;5114249;28;20244;-79
2024/01/04 14:03:58;;;;;;;2.95;2.55;;;6.20;99.90;;;;;;5113071;28;20223;-78
2024/01/04 14:06:25;;;;;;;2.60;2.13;;;6.20;99.90;;;;;;5114041;28;20237;-79
2024/01/04 14:08:53;;;;;;;2.40;2.20;;;6.20;99.90;;;;;;5114195;28;20676;-79
2024/01/04 14:11:21;;;;;;;3.03;1.83;;;6.20;99.90;;;;;;5113724;28;20226;-78
2024/01/04 14:13:48;;;;;;;1.75;1.45;;;6.20;99.90;;;;;;5113495;28;20242;-78
2024/01/04 14:16:15;;;;;;;2.15;1.50;;;6.20;99.90;;;;;;5116749;28;20295;-86
2024/01/04 14:18:44;;;;;;;5.15;2.47;;;6.20;99.90;;;;;;5118979;28;20226;-85
2024/01/04 14:21:12;;;;;;;2.85;1.45;;;6.20;99.90;;;;;;5118286;28;20698;-79
2024/01/04 14:23:39;;;;;;;1.75;1.30;;;6.20;99.90;;;;;;5115202;27;20252;-78
2024/01/04 14:26:07;;;;;;;3.22;2.05;;;6.20;99.90;;;;;;5120174;28;20707;-86
2024/01/04 14:28:34;;;;;;;2.92;2.05;;;6.20;99.90;;;;;;5119625;28;20222;-79
2024/01/04 14:31:02;;;;;;;3.03;2.38;;;6.20;99.90;;;;;;5120137;28;20227;-79
2024/01/04 14:33:35;;;;;;;2.03;1.60;;;6.20;99.90;;;;;;5121637;28;20223;-80
2024/01/04 14:36:40;;;;;;;3.00;2.10;;;6.20;99.90;;;;;;5119814;28;20219;-79
2024/01/04 14:39:07;;;;;;;6.93;3.60;;;6.20;99.90;;;;;;5123421;28;20229;-79
2024/01/04 14:41:34;;;;;;;4.53;2.65;;;6.20;99.90;;;;;;5120067;27;20246;-78
2024/01/04 14:44:01;;;;;;;4.35;2.30;;;6.20;99.90;;;;;;5117980;27;20231;-79
2024/01/04 14:46:28;;;;;;;3.28;2.47;;;6.20;99.90;;;;;;5116854;27;20226;-79
2024/01/04 14:49:04;;;;;;;5.13;3.60;;;6.20;99.90;;;;;;5124844;27;20751;-78
2024/01/04 14:51:33;;;;;;;3.25;2.00;;;6.10;99.90;;;;;;5117864;27;20572;-79
2024/01/04 14:54:01;;;;;;;2.05;1.85;;;6.10;99.90;;;;;;5115912;27;20305;-78
2024/01/04 14:56:28;;;;;;;2.50;1.83;;;6.20;99.90;;;;;;5123542;27;20332;-79
2024/01/04 14:58:56;;;;;;;2.13;1.80;;;6.10;99.90;;;;;;5116630;27;20223;-86
2024/01/04 15:01:24;;;;;;;3.40;2.05;;;6.20;99.90;;;;;;5117319;27;20291;-79
2024/01/04 15:03:52;;;;;;;4.10;2.38;;;6.20;99.90;;;;;;5122750;27;20222;-86
2024/01/04 15:06:19;;;;;;;4.38;2.20;;;6.10;99.90;;;;;;5117149;27;20210;-86
2024/01/04 15:08:46;;;;;;;2.10;1.63;;;6.10;99.90;;;;;;5117865;27;20222;-79
2024/01/04 15:11:16;;;;;;;1.70;1.38;;;6.10;99.90;;;;;;5116823;27;20736;-86
2024/01/04 15:13:43;;;;;;;1.90;1.05;;;6.10;99.90;;;;;;5118498;27;20232;-79
2024/01/04 15:16:10;;;;;;;1.90;1.60;;;6.00;99.90;;;;;;5117024;27;20283;-79
2024/01/04 15:18:38;;;;;;;2.20;1.58;;;6.00;99.90;;;;;;5117106;27;20289;-79
2024/01/04 15:21:10;;;;;;;1.95;1.25;;;6.00;99.90;;;;;;5116343;27;20223;-79